Kristina — SFB8756 — position and weather

sailwx.info

Track history (hours):
 
Tides and Currents Weather Stations Pressure Air Temp Water Temp Dewpoint Dewpoint Depression Visibility Wind Speed Wind Dir Waves Ship Positions

Kristina

Last reported at 2015-May-24 12:23 UTC. Time now 2015-May-24 13:13 UTC.
Position N 55°17' E 014°35'.

Length 11 m; draft 2 m.

Type: Fishing. MMSI: 265630900.

Date/timePositionNaut miles runAvg speedWind from/ knotsBaromVisibWave heightAir tempDewpointWater temp
2015-May-24 12:23N 55°17' E 014°35'0 0.3
2015-May-24 11:33N 55°17' E 014°36'0 0.3
2015-May-24 10:33N 55°17' E 014°36'4 4.3
2015-May-24 09:33N 55°16' E 014°29'7 2.2
2015-May-24 06:30N 55°12' E 014°19'1 0.7
2015-May-24 05:31N 55°12' E 014°20'13 0.8
2015-May-23 14:29N 55°25' E 014°23'8 6.8
2015-May-23 13:16N 55°19' E 014°32'2 2.3
2015-May-23 12:29N 55°17' E 014°34'1 0.6
2015-May-23 11:29N 55°17' E 014°33'1 1.1
2015-May-23 10:32N 55°17' E 014°35'0 0.3
2015-May-23 09:32N 55°17' E 014°36'3 2.6
2015-May-23 08:33N 55°16' E 014°32'8 2.5
2015-May-23 05:20N 55°12' E 014°19'1 1.2
2015-May-23 04:33N 55°12' E 014°21'13 1.0
2015-May-22 15:18N 55°25' E 014°22'5 6.6
2015-May-22 14:32N 55°21' E 014°27'1 1.1
2015-May-22 13:30N 55°20' E 014°27'4 4.2
2015-May-22 12:33N 55°18' E 014°33'1 0.5
2015-May-22 11:33N 55°18' E 014°34'1 0.7
2015-May-22 10:33N 55°17' E 014°34'1 0.9
2015-May-22 09:33N 55°17' E 014°36'5 4.8
2015-May-22 08:32N 55°15' E 014°29'6 2.0
2015-May-22 05:27N 55°12' E 014°19'1 1.0
2015-May-22 04:32N 55°12' E 014°20'10 0.6
2015-May-21 13:31N 55°19' E 014°32'2 2.0
2015-May-21 12:33N 55°18' E 014°34'0 0.2
2015-May-21 11:33N 55°18' E 014°34'1 0.7
2015-May-21 10:30N 55°17' E 014°34'1 0.7
2015-May-21 09:33N 55°17' E 014°36'3 3.0
2015-May-21 08:33N 55°16' E 014°31'6 5.2
2015-May-21 07:29N 55°13' E 014°22'3 3.5
2015-May-21 06:33N 55°12' E 014°17'1 0.9
2015-May-21 05:33N 55°12' E 014°18'1 1.0
2015-May-21 04:33N 55°12' E 014°20'10 0.7
2015-May-20 15:33N 55°21' E 014°26'1 1.2
2015-May-20 14:29N 55°20' E 014°27'3 3.6
2015-May-20 13:33N 55°18' E 014°32'1 0.9
2015-May-20 12:33N 55°18' E 014°33'1 1.1
2015-May-20 11:30N 55°18' E 014°35'1 1.0
2015-May-20 10:34N 55°17' E 014°34'1 0.6
2015-May-20 09:32N 55°17' E 014°35'1 0.7
2015-May-20 08:32N 55°17' E 014°34'5 5.0
2015-May-20 07:33N 55°15' E 014°27'5 1.5
2015-May-20 04:24N 55°12' E 014°19'7 7.1
2015-May-20 03:27N 55°19' E 014°19'9 1.8
2015-May-19 22:09N 55°29' E 014°17'0 0.0
2015-May-19 19:29N 55°29' E 014°17'0 0.0
2015-May-19 17:17N 55°29' E 014°17'14 2.0
2015-May-19 10:10N 55°16' E 014°30'4 5.5
2015-May-19 09:29N 55°17' E 014°36'5 3.7
2015-May-19 08:05N 55°20' E 014°28'1 0.6
2015-May-19 06:18N 55°20' E 014°27'10 1.7
2015-May-19 00:33N 55°29' E 014°17'0 0.0
2015-May-18 23:33N 55°29' E 014°17'0 0.0
2015-May-18 22:33N 55°29' E 014°17'0 0.0
2015-May-18 21:14N 55°29' E 014°17'0 0.0
2015-May-18 20:33N 55°29' E 014°17'0 0.0
2015-May-18 19:17N 55°29' E 014°17'0 0.0
2015-May-18 18:33N 55°29' E 014°17'4 4.0
2015-May-18 17:29N 55°24' E 014°17'8 7.7
2015-May-18 16:31N 55°17' E 014°17'5 4.5
2015-May-18 15:30N 55°12' E 014°18'1 0.8
2015-May-18 14:31N 55°12' E 014°17'0 0.5
2015-May-18 13:31N 55°13' E 014°16'1 1.0
2015-May-18 12:33N 55°13' E 014°18'4 3.9
2015-May-18 11:34N 55°16' E 014°22'5 5.1
2015-May-18 10:33N 55°20' E 014°28'1 0.6
2015-May-18 09:30N 55°20' E 014°27'1 1.0
2015-May-18 08:30N 55°20' E 014°29'1 0.9
2015-May-18 07:33N 55°20' E 014°27'1 0.8
2015-May-18 06:30N 55°20' E 014°29'4 4.0
2015-May-18 05:33N 55°23' E 014°25'7 6.8
2015-May-18 04:33N 55°29' E 014°17'0 0.0
2015-May-18 03:33N 55°29' E 014°17'0 0.0
2015-May-18 02:27N 55°29' E 014°17'0 0.0
2015-May-18 01:33N 55°29' E 014°17'15 0.4
2015-May-16 07:22N 55°13' E 014°20'7 6.8
2015-May-16 06:23N 55°19' E 014°26'3 3.2
2015-May-16 05:21N 55°20' E 014°31'1 0.7
2015-May-16 04:31N 55°20' E 014°32'2 1.8
2015-May-16 03:15N 55°20' E 014°28'1 1.5
2015-May-16 02:33N 55°21' E 014°27'8 7.0
2015-May-16 01:23N 55°28' E 014°18'1 0.6
2015-May-15 23:31N 55°29' E 014°17'0 0.0
2015-May-15 22:33N 55°29' E 014°17'0 0.0
2015-May-15 21:31N 55°29' E 014°17'0 0.0
2015-May-15 20:23N 55°29' E 014°17'0 0.0
2015-May-15 19:27N 55°29' E 014°17'0 0.0
2015-May-15 18:21N 55°29' E 014°17'0 0.0
2015-May-15 17:32N 55°29' E 014°17'0 0.0
2015-May-15 16:33N 55°29' E 014°17'0 0.0
2015-May-15 15:29N 55°29' E 014°17'0 0.0
2015-May-15 14:31N 55°29' E 014°17'0 0.0
2015-May-15 13:32N 55°29' E 014°17'0 0.0
2015-May-15 12:16N 55°29' E 014°17'0 0.0
2015-May-15 11:21N 55°29' E 014°17'4 4.5
2015-May-15 10:33N 55°25' E 014°18'8 7.1
2015-May-15 09:22N 55°17' E 014°19'2 3.0
2015-May-15 08:33N 55°15' E 014°21'6 5.6
2015-May-15 07:30N 55°19' E 014°28'1 1.0
2015-May-15 06:23N 55°20' E 014°29'0 0.0
2015-May-15 05:30N 55°20' E 014°29'1 1.2
2015-May-15 04:19N 55°20' E 014°27'1 1.2
2015-May-15 03:33N 55°20' E 014°25'10 4.9
2015-May-15 01:32N 55°29' E 014°17'0 0.0
2015-May-15 00:30N 55°29' E 014°17'0 0.0
2015-May-14 23:33N 55°29' E 014°17'0 0.0
2015-May-14 22:31N 55°29' E 014°17'0 0.0
2015-May-14 21:30N 55°29' E 014°17'0 0.0
2015-May-14 19:28N 55°29' E 014°17'4 0.9
2015-May-14 15:07N 55°25' E 014°20'4 7.2
2015-May-14 14:33N 55°21' E 014°24'3 2.8
2015-May-14 13:32N 55°20' E 014°28'4 4.2
2015-May-14 12:33N 55°17' E 014°25'  
Track history (hours):
 
Tides and Currents Weather Stations Pressure Air Temp Water Temp Dewpoint Dewpoint Depression Visibility Wind Speed Wind Dir Waves Ship Positions

Kristina

Last reported at 2015-May-24 12:23 UTC. Time now 2015-May-24 13:13 UTC.
Position N 55°17' E 014°35'.

Length 11 m; draft 2 m.

Type: Fishing. MMSI: 265630900.

Date/timePositionNaut miles runAvg speedWind from/ knotsBaromVisibWave heightAir tempDewpointWater temp
2015-May-24 12:23N 55°17' E 014°35'0 0.3
2015-May-24 11:33N 55°17' E 014°36'0 0.3
2015-May-24 10:33N 55°17' E 014°36'4 4.3
2015-May-24 09:33N 55°16' E 014°29'7 2.2
2015-May-24 06:30N 55°12' E 014°19'1 0.7
2015-May-24 05:31N 55°12' E 014°20'13 0.8
2015-May-23 14:29N 55°25' E 014°23'8 6.8
2015-May-23 13:16N 55°19' E 014°32'2 2.3
2015-May-23 12:29N 55°17' E 014°34'1 0.6
2015-May-23 11:29N 55°17' E 014°33'1 1.1
2015-May-23 10:32N 55°17' E 014°35'0 0.3
2015-May-23 09:32N 55°17' E 014°36'3 2.6
2015-May-23 08:33N 55°16' E 014°32'8 2.5
2015-May-23 05:20N 55°12' E 014°19'1 1.2
2015-May-23 04:33N 55°12' E 014°21'13 1.0
2015-May-22 15:18N 55°25' E 014°22'5 6.6
2015-May-22 14:32N 55°21' E 014°27'1 1.1
2015-May-22 13:30N 55°20' E 014°27'4 4.2
2015-May-22 12:33N 55°18' E 014°33'1 0.5
2015-May-22 11:33N 55°18' E 014°34'1 0.7
2015-May-22 10:33N 55°17' E 014°34'1 0.9
2015-May-22 09:33N 55°17' E 014°36'5 4.8
2015-May-22 08:32N 55°15' E 014°29'6 2.0
2015-May-22 05:27N 55°12' E 014°19'1 1.0
2015-May-22 04:32N 55°12' E 014°20'10 0.6
2015-May-21 13:31N 55°19' E 014°32'2 2.0
2015-May-21 12:33N 55°18' E 014°34'0 0.2
2015-May-21 11:33N 55°18' E 014°34'1 0.7
2015-May-21 10:30N 55°17' E 014°34'1 0.7
2015-May-21 09:33N 55°17' E 014°36'3 3.0
2015-May-21 08:33N 55°16' E 014°31'6 5.2
2015-May-21 07:29N 55°13' E 014°22'3 3.5
2015-May-21 06:33N 55°12' E 014°17'1 0.9
2015-May-21 05:33N 55°12' E 014°18'1 1.0
2015-May-21 04:33N 55°12' E 014°20'10 0.7
2015-May-20 15:33N 55°21' E 014°26'1 1.2
2015-May-20 14:29N 55°20' E 014°27'3 3.6
2015-May-20 13:33N 55°18' E 014°32'1 0.9
2015-May-20 12:33N 55°18' E 014°33'1 1.1
2015-May-20 11:30N 55°18' E 014°35'1 1.0
2015-May-20 10:34N 55°17' E 014°34'1 0.6
2015-May-20 09:32N 55°17' E 014°35'1 0.7
2015-May-20 08:32N 55°17' E 014°34'5 5.0
2015-May-20 07:33N 55°15' E 014°27'5 1.5
2015-May-20 04:24N 55°12' E 014°19'7 7.1
2015-May-20 03:27N 55°19' E 014°19'9 1.8
2015-May-19 22:09N 55°29' E 014°17'0 0.0
2015-May-19 19:29N 55°29' E 014°17'0 0.0
2015-May-19 17:17N 55°29' E 014°17'14 2.0
2015-May-19 10:10N 55°16' E 014°30'4 5.5
2015-May-19 09:29N 55°17' E 014°36'5 3.7
2015-May-19 08:05N 55°20' E 014°28'1 0.6
2015-May-19 06:18N 55°20' E 014°27'10 1.7
2015-May-19 00:33N 55°29' E 014°17'0 0.0
2015-May-18 23:33N 55°29' E 014°17'0 0.0
2015-May-18 22:33N 55°29' E 014°17'0 0.0
2015-May-18 21:14N 55°29' E 014°17'0 0.0
2015-May-18 20:33N 55°29' E 014°17'0 0.0
2015-May-18 19:17N 55°29' E 014°17'0 0.0
2015-May-18 18:33N 55°29' E 014°17'4 4.0
2015-May-18 17:29N 55°24' E 014°17'8 7.7
2015-May-18 16:31N 55°17' E 014°17'5 4.5
2015-May-18 15:30N 55°12' E 014°18'1 0.8
2015-May-18 14:31N 55°12' E 014°17'0 0.5
2015-May-18 13:31N 55°13' E 014°16'1 1.0
2015-May-18 12:33N 55°13' E 014°18'4 3.9
2015-May-18 11:34N 55°16' E 014°22'5 5.1
2015-May-18 10:33N 55°20' E 014°28'1 0.6
2015-May-18 09:30N 55°20' E 014°27'1 1.0
2015-May-18 08:30N 55°20' E 014°29'1 0.9
2015-May-18 07:33N 55°20' E 014°27'1 0.8
2015-May-18 06:30N 55°20' E 014°29'4 4.0
2015-May-18 05:33N 55°23' E 014°25'7 6.8
2015-May-18 04:33N 55°29' E 014°17'0 0.0
2015-May-18 03:33N 55°29' E 014°17'0 0.0
2015-May-18 02:27N 55°29' E 014°17'0 0.0
2015-May-18 01:33N 55°29' E 014°17'15 0.4
2015-May-16 07:22N 55°13' E 014°20'7 6.8
2015-May-16 06:23N 55°19' E 014°26'3 3.2
2015-May-16 05:21N 55°20' E 014°31'1 0.7
2015-May-16 04:31N 55°20' E 014°32'2 1.8
2015-May-16 03:15N 55°20' E 014°28'1 1.5
2015-May-16 02:33N 55°21' E 014°27'8 7.0
2015-May-16 01:23N 55°28' E 014°18'1 0.6
2015-May-15 23:31N 55°29' E 014°17'0 0.0
2015-May-15 22:33N 55°29' E 014°17'0 0.0
2015-May-15 21:31N 55°29' E 014°17'0 0.0
2015-May-15 20:23N 55°29' E 014°17'0 0.0
2015-May-15 19:27N 55°29' E 014°17'0 0.0
2015-May-15 18:21N 55°29' E 014°17'0 0.0
2015-May-15 17:32N 55°29' E 014°17'0 0.0
2015-May-15 16:33N 55°29' E 014°17'0 0.0
2015-May-15 15:29N 55°29' E 014°17'0 0.0
2015-May-15 14:31N 55°29' E 014°17'0 0.0
2015-May-15 13:32N 55°29' E 014°17'0 0.0
2015-May-15 12:16N 55°29' E 014°17'0 0.0
2015-May-15 11:21N 55°29' E 014°17'4 4.5
2015-May-15 10:33N 55°25' E 014°18'8 7.1
2015-May-15 09:22N 55°17' E 014°19'2 3.0
2015-May-15 08:33N 55°15' E 014°21'6 5.6
2015-May-15 07:30N 55°19' E 014°28'1 1.0
2015-May-15 06:23N 55°20' E 014°29'0 0.0
2015-May-15 05:30N 55°20' E 014°29'1 1.2
2015-May-15 04:19N 55°20' E 014°27'1 1.2
2015-May-15 03:33N 55°20' E 014°25'10 4.9
2015-May-15 01:32N 55°29' E 014°17'0 0.0
2015-May-15 00:30N 55°29' E 014°17'0 0.0
2015-May-14 23:33N 55°29' E 014°17'0 0.0
2015-May-14 22:31N 55°29' E 014°17'0 0.0
2015-May-14 21:30N 55°29' E 014°17'0 0.0
2015-May-14 19:28N 55°29' E 014°17'4 0.9
2015-May-14 15:07N 55°25' E 014°20'4 7.2
2015-May-14 14:33N 55°21' E 014°24'3 2.8
2015-May-14 13:32N 55°20' E 014°28'4 4.2
2015-May-14 12:33N 55°17' E 014°25'  

Dump ship's entire track history